Main page
METAR-TAF:

METAR-TAF

Airports :

Lençóis Airport

Lençóis, Bahia, Brazil

latitude: 12-29-00S, longitude: 041-16-23W, elevation: 511 m

Current weather observation

The report was made 10 hours and 33 minutes ago, at 21:00 UTC
Wind 5 kt from the East
Temperature 28°C
Humidity 74%
Pressure 1011 hPa
Visibility 10 km or more
Few clouds at a height of 4000 ft

METAR: SBLE 182100Z 10005KT 9999 FEW040 28/23 Q1011

Time: 04:33 (07:33 UTC)


TAF: missing

Weather observations and forecasts of more than 4000 airports (METAR and TAF reports).

The available stations are represented by yellow and red dots on the map.

Hover mouse over dot to see the name of the station.

Then click to see weather observations and forecasts.

To change the map : click on the green buttons with a black cross to zoom in, on the green button with a dash to zoom out, or on the green arrows for adjacent maps.


METAR-TAF: